createdAt,value
2023-04-23T00:02:03.219Z,12.95
2023-04-23T00:04:37.990Z,12.95
2023-04-23T00:07:05.885Z,12.95
2023-04-23T00:09:33.506Z,12.90
2023-04-23T00:12:02.059Z,12.84
2023-04-23T00:14:29.400Z,12.77
2023-04-23T00:16:56.680Z,12.70
2023-04-23T00:19:23.483Z,12.66
2023-04-23T00:21:50.259Z,12.61
2023-04-23T00:24:17.088Z,12.58
2023-04-23T00:26:43.905Z,12.58
2023-04-23T00:29:11.074Z,12.61
2023-04-23T00:31:37.832Z,12.60
2023-04-23T00:34:04.578Z,12.63
2023-04-23T00:36:31.322Z,12.66
2023-04-23T00:38:58.020Z,12.69
2023-04-23T00:41:27.313Z,12.75
2023-04-23T00:43:58.393Z,12.77
2023-04-23T00:46:28.613Z,12.77
2023-04-23T00:48:55.708Z,12.78
2023-04-23T00:51:23.557Z,12.88
2023-04-23T00:53:51.010Z,12.92
2023-04-23T00:56:18.654Z,12.89
2023-04-23T00:58:46.114Z,12.86
2023-04-23T01:01:13.932Z,12.78
2023-04-23T01:03:44.401Z,12.78
2023-04-23T01:06:11.217Z,12.80
2023-04-23T01:08:41.008Z,12.77
2023-04-23T01:11:07.770Z,12.76
2023-04-23T01:13:35.226Z,12.72
2023-04-23T01:16:02.569Z,12.72
2023-04-23T01:18:30.065Z,12.73
2023-04-23T01:20:56.756Z,12.67
2023-04-23T01:23:23.707Z,12.66
2023-04-23T01:25:51.088Z,12.70
2023-04-23T01:28:22.072Z,12.71
2023-04-23T01:30:51.098Z,12.71
2023-04-23T01:33:19.404Z,12.67
2023-04-23T01:35:49.309Z,12.62
2023-04-23T01:38:23.494Z,12.61
2023-04-23T01:40:50.225Z,12.53
2023-04-23T01:43:20.996Z,12.49
2023-04-23T01:45:47.863Z,12.45
2023-04-23T01:48:17.250Z,12.41
2023-04-23T01:50:44.309Z,12.39
2023-04-23T01:53:11.182Z,12.35
2023-04-23T01:55:47.594Z,12.32
2023-04-23T01:58:14.759Z,12.32
2023-04-23T02:00:42.003Z,12.29
2023-04-23T02:03:09.149Z,12.23
2023-04-23T02:05:37.008Z,12.19
2023-04-23T02:08:04.311Z,12.15
2023-04-23T02:10:31.775Z,12.19
2023-04-23T02:13:01.474Z,12.19
2023-04-23T02:15:28.924Z,12.21
2023-04-23T02:17:57.154Z,12.19
2023-04-23T02:20:23.983Z,12.18
2023-04-23T02:22:51.090Z,12.16
2023-04-23T02:25:23.056Z,12.16
2023-04-23T02:27:50.543Z,12.16
2023-04-23T02:30:19.249Z,12.13
2023-04-23T02:32:45.990Z,12.08
2023-04-23T02:35:12.727Z,12.11
2023-04-23T02:37:43.408Z,12.11
2023-04-23T02:40:11.284Z,12.14
2023-04-23T02:42:38.177Z,12.07
2023-04-23T02:45:05.907Z,11.86
2023-04-23T02:47:32.675Z,11.74
2023-04-23T02:49:59.391Z,11.57
2023-04-23T02:52:26.065Z,11.40
2023-04-23T02:54:53.016Z,11.27
2023-04-23T02:57:23.539Z,11.18
2023-04-23T02:59:53.136Z,11.12
2023-04-23T03:02:23.922Z,11.06
2023-04-23T03:04:51.379Z,11.02
2023-04-23T03:07:18.120Z,10.95
2023-04-23T03:09:44.847Z,10.89
2023-04-23T03:12:11.680Z,10.83
2023-04-23T03:14:38.424Z,10.76
2023-04-23T03:17:06.434Z,10.65
2023-04-23T03:19:36.166Z,10.51
2023-04-23T03:22:05.640Z,10.48
2023-04-23T03:24:35.359Z,10.45
2023-04-23T03:27:02.219Z,10.37
2023-04-23T03:29:29.105Z,10.29
2023-04-23T03:31:56.542Z,10.23
2023-04-23T03:34:23.235Z,10.13
2023-04-23T03:36:51.057Z,10.01
2023-04-23T03:39:17.928Z,9.97
2023-04-23T03:41:44.945Z,9.86
2023-04-23T03:44:11.645Z,9.84
2023-04-23T03:46:38.446Z,9.79
2023-04-23T03:49:05.358Z,9.71
2023-04-23T03:51:32.431Z,9.64
2023-04-23T03:53:59.161Z,9.55
2023-04-23T03:56:27.141Z,9.51
2023-04-23T03:58:56.814Z,9.49
2023-04-23T04:01:23.568Z,9.47
2023-04-23T04:03:50.328Z,9.45
2023-04-23T04:06:17.113Z,9.35
2023-04-23T04:08:46.225Z,9.36
2023-04-23T04:11:12.877Z,9.35
2023-04-23T04:13:41.947Z,9.34
2023-04-23T04:16:08.961Z,9.29
2023-04-23T04:18:35.861Z,9.27
2023-04-23T04:21:02.604Z,9.26
2023-04-23T04:23:32.286Z,9.27
2023-04-23T04:25:59.889Z,9.25
2023-04-23T04:28:26.677Z,9.25
2023-04-23T04:30:54.967Z,9.21
2023-04-23T04:33:21.750Z,9.15
2023-04-23T04:35:51.008Z,9.08
2023-04-23T04:38:18.324Z,9.00
2023-04-23T04:40:45.752Z,8.98
2023-04-23T04:43:12.388Z,8.94
2023-04-23T04:45:39.081Z,8.84
2023-04-23T04:48:06.043Z,8.85
2023-04-23T04:50:32.753Z,8.82
2023-04-23T04:52:59.688Z,8.84
2023-04-23T04:55:27.119Z,8.87
2023-04-23T04:57:56.915Z,8.86
2023-04-23T05:00:29.972Z,8.88
2023-04-23T05:03:01.057Z,8.86
2023-04-23T05:05:28.496Z,8.84
2023-04-23T05:08:01.111Z,8.81
2023-04-23T05:10:29.506Z,8.74
2023-04-23T05:13:00.607Z,8.77
2023-04-23T05:15:27.705Z,8.69
2023-04-23T05:17:57.347Z,8.68
2023-04-23T05:20:27.329Z,8.62
2023-04-23T05:22:59.413Z,8.69
2023-04-23T05:25:26.134Z,8.70
2023-04-23T05:27:53.386Z,8.76
2023-04-23T05:30:20.227Z,8.77
2023-04-23T05:32:47.184Z,8.82
2023-04-23T05:35:13.894Z,8.85
2023-04-23T05:37:41.558Z,8.74
2023-04-23T05:48:13.996Z,8.62
2023-04-23T05:53:22.813Z,8.57
2023-04-23T05:55:49.667Z,8.60
2023-04-23T06:00:59.842Z,8.69
2023-04-23T06:03:30.367Z,8.74
2023-04-23T06:05:57.936Z,8.81
2023-04-23T06:08:25.428Z,8.93
2023-04-23T06:29:43.921Z,9.55
2023-04-23T06:32:10.860Z,9.70
2023-04-23T06:34:43.979Z,9.82
2023-04-23T06:37:19.102Z,9.88
2023-04-23T06:39:46.075Z,9.96
2023-04-23T06:47:42.450Z,10.33
2023-04-23T06:50:09.485Z,10.55
2023-04-23T06:52:36.457Z,10.67
2023-04-23T06:55:03.975Z,10.82
2023-04-23T06:57:30.687Z,10.92
2023-04-23T06:59:57.447Z,10.87
2023-04-23T07:02:24.356Z,10.86
2023-04-23T07:04:51.335Z,10.70
2023-04-23T07:07:18.271Z,10.68
2023-04-23T07:09:44.945Z,10.71
2023-04-23T07:12:11.796Z,10.81
2023-04-23T07:14:38.638Z,10.78
2023-04-23T07:17:05.675Z,10.68
2023-04-23T07:19:32.448Z,10.55
2023-04-23T07:21:59.185Z,10.55
2023-04-23T07:24:26.919Z,10.57
2023-04-23T07:26:56.567Z,10.51
2023-04-23T07:29:23.352Z,10.55
2023-04-23T07:31:51.313Z,10.48
2023-04-23T07:34:17.989Z,10.62
2023-04-23T07:36:44.811Z,10.59
2023-04-23T07:39:11.542Z,10.62
2023-04-23T07:41:38.578Z,10.63
2023-04-23T07:44:05.638Z,10.88
2023-04-23T07:54:35.536Z,10.87
2023-04-23T07:57:03.005Z,11.09
2023-04-23T07:59:30.443Z,11.32
2023-04-23T08:01:57.292Z,11.33
2023-04-23T08:23:20.310Z,12.55
2023-04-23T08:25:47.169Z,12.80
2023-04-23T08:28:13.799Z,13.21
2023-04-23T08:30:49.473Z,13.87
2023-04-23T08:33:19.454Z,13.47
2023-04-23T08:35:47.005Z,13.47
2023-04-23T08:38:13.741Z,13.27
2023-04-23T08:40:42.855Z,13.52
2023-04-23T08:43:19.765Z,14.36
2023-04-23T08:45:49.432Z,14.64
2023-04-23T08:48:16.769Z,14.41
2023-04-23T08:50:48.241Z,14.26
2023-04-23T08:53:25.554Z,13.90
2023-04-23T08:55:57.348Z,13.29
2023-04-23T08:58:26.040Z,13.00
2023-04-23T09:00:58.049Z,13.35
2023-04-23T09:03:31.712Z,13.29
2023-04-23T09:05:59.041Z,13.23
2023-04-23T09:08:26.308Z,13.57
2023-04-23T09:11:00.880Z,13.68
2023-04-23T09:13:33.627Z,13.51
2023-04-23T09:16:00.345Z,13.83
2023-04-23T09:18:27.064Z,13.95
2023-04-23T09:20:57.412Z,13.94
2023-04-23T09:23:24.044Z,14.34
2023-04-23T09:25:50.793Z,14.73
2023-04-23T09:28:17.885Z,14.87
2023-04-23T09:30:46.225Z,15.26
2023-04-23T09:33:16.361Z,15.13
2023-04-23T09:35:43.589Z,14.87
2023-04-23T09:38:10.698Z,14.67
2023-04-23T09:40:38.693Z,14.52
2023-04-23T09:43:10.124Z,13.88
2023-04-23T09:45:36.941Z,13.77
2023-04-23T09:48:04.522Z,13.57
2023-04-23T09:50:37.060Z,13.42
2023-04-23T09:53:06.256Z,13.72
2023-04-23T09:55:41.757Z,13.86
2023-04-23T09:58:17.045Z,13.79
2023-04-23T10:00:43.822Z,13.85
2023-04-23T10:03:11.947Z,14.06
2023-04-23T10:05:59.691Z,14.45
2023-04-23T10:08:28.916Z,14.81
2023-04-23T10:11:13.762Z,15.18
2023-04-23T10:13:45.603Z,15.66
2023-04-23T10:16:22.188Z,16.12
2023-04-23T10:18:53.782Z,15.88
2023-04-23T10:21:36.640Z,15.80
2023-04-23T10:24:14.859Z,15.65
2023-04-23T10:26:51.824Z,15.39
2023-04-23T10:29:26.990Z,15.83
2023-04-23T10:32:00.796Z,16.11
2023-04-23T10:34:30.846Z,16.50
2023-04-23T10:37:02.933Z,15.89
2023-04-23T10:39:42.963Z,15.70
2023-04-23T10:42:13.507Z,16.08
2023-04-23T10:47:17.168Z,16.43
2023-04-23T10:49:48.654Z,15.78
2023-04-23T10:52:22.219Z,16.30
2023-04-23T10:55:00.018Z,16.68
2023-04-23T10:57:27.038Z,17.43
2023-04-23T10:59:58.764Z,17.75
2023-04-23T11:02:26.564Z,18.01
2023-04-23T11:04:59.102Z,17.24
2023-04-23T11:07:41.294Z,17.16
2023-04-23T11:10:18.162Z,17.44
2023-04-23T11:12:45.009Z,17.46
2023-04-23T11:15:16.631Z,17.60
2023-04-23T11:17:49.125Z,17.60
2023-04-23T11:20:22.408Z,17.45
2023-04-23T11:22:56.524Z,17.37
2023-04-23T11:25:28.685Z,17.45
2023-04-23T11:28:03.260Z,18.00
2023-04-23T11:30:30.964Z,17.59
2023-04-23T11:33:01.365Z,18.12
2023-04-23T11:35:29.445Z,18.42
2023-04-23T11:37:56.989Z,18.72
2023-04-23T11:40:24.716Z,18.77
2023-04-23T11:42:57.498Z,18.82
2023-04-23T11:45:28.079Z,18.90
2023-04-23T11:47:58.365Z,19.22
2023-04-23T11:50:33.359Z,18.78
2023-04-23T11:53:11.306Z,19.03
2023-04-23T11:55:38.842Z,19.41
2023-04-23T11:58:05.775Z,19.28
2023-04-23T12:00:32.459Z,18.85
2023-04-23T12:03:06.448Z,18.83
2023-04-23T12:05:45.754Z,19.05
2023-04-23T12:08:21.076Z,19.43
2023-04-23T12:11:06.187Z,19.37
2023-04-23T12:13:34.184Z,19.61
2023-04-23T12:16:09.154Z,19.87
2023-04-23T12:18:44.258Z,19.78
2023-04-23T12:21:13.664Z,20.04
2023-04-23T12:23:47.268Z,20.36
2023-04-23T12:26:16.758Z,20.50
2023-04-23T12:29:01.755Z,19.83
2023-04-23T12:31:30.232Z,19.88
2023-04-23T12:34:10.004Z,19.83
2023-04-23T12:36:50.041Z,20.30
2023-04-23T12:39:34.368Z,20.15
2023-04-23T12:42:06.807Z,19.69
2023-04-23T12:44:43.171Z,20.63
2023-04-23T12:47:11.625Z,20.89
2023-04-23T12:49:43.215Z,20.61
2023-04-23T12:52:12.890Z,20.51
2023-04-23T12:54:47.695Z,21.12
2023-04-23T12:57:14.921Z,21.66
2023-04-23T12:59:42.216Z,21.43
2023-04-23T13:02:09.900Z,21.25
2023-04-23T13:04:43.285Z,21.16
2023-04-23T13:07:11.389Z,21.35
2023-04-23T13:09:44.544Z,21.26
2023-04-23T13:12:11.817Z,21.10
2023-04-23T13:17:26.705Z,20.88
2023-04-23T13:25:28.179Z,21.88
2023-04-23T13:27:56.067Z,21.41
2023-04-23T13:30:24.892Z,22.03
2023-04-23T13:32:51.796Z,21.78
2023-04-23T13:35:18.724Z,20.88
2023-04-23T13:37:50.050Z,21.05
2023-04-23T13:40:19.423Z,20.81
2023-04-23T13:42:48.080Z,22.06
2023-04-23T13:45:16.386Z,22.76
2023-04-23T13:47:44.514Z,22.39
2023-04-23T13:50:12.237Z,21.32
2023-04-23T13:52:41.940Z,19.81
2023-04-23T13:55:10.044Z,19.07
2023-04-23T13:57:41.184Z,18.73
2023-04-23T14:00:09.114Z,18.36
2023-04-23T14:02:36.128Z,18.42
2023-04-23T14:05:04.932Z,18.08
2023-04-23T14:07:32.511Z,17.74
2023-04-23T14:09:59.188Z,17.68
2023-04-23T14:12:29.502Z,17.65
2023-04-23T14:14:56.762Z,17.59
2023-04-23T14:17:23.525Z,17.69
2023-04-23T14:19:50.454Z,17.53
2023-04-23T14:22:17.165Z,17.47
2023-04-23T14:24:51.409Z,17.49
2023-04-23T14:27:18.120Z,17.42
2023-04-23T14:30:06.050Z,17.22
2023-04-23T14:32:35.924Z,17.24
2023-04-23T14:35:03.557Z,17.17
2023-04-23T14:37:30.273Z,16.89
2023-04-23T14:39:56.877Z,16.95
2023-04-23T14:42:26.743Z,17.05
2023-04-23T14:45:00.228Z,16.85
2023-04-23T14:47:27.058Z,17.13
2023-04-23T14:49:54.415Z,17.27
2023-04-23T14:52:21.142Z,18.14
2023-04-23T14:54:47.925Z,18.48
2023-04-23T14:57:14.662Z,18.46
2023-04-23T14:59:56.922Z,19.13
2023-04-23T15:02:23.808Z,19.12
2023-04-23T15:04:50.869Z,19.27
2023-04-23T15:07:17.580Z,19.68
2023-04-23T15:09:44.372Z,20.37
2023-04-23T15:13:01.345Z,22.32
2023-04-23T15:16:02.460Z,22.68
2023-04-23T15:18:29.411Z,22.94
2023-04-23T15:20:58.845Z,21.98
2023-04-23T15:23:25.496Z,22.13
2023-04-23T15:25:54.871Z,22.87
2023-04-23T15:28:25.150Z,23.92
2023-04-23T15:30:53.181Z,23.05
2023-04-23T15:33:21.694Z,23.87
2023-04-23T15:35:50.965Z,23.24
2023-04-23T15:38:19.840Z,21.84
2023-04-23T15:40:46.875Z,20.96
2023-04-23T15:43:13.854Z,20.66
2023-04-23T15:45:48.508Z,19.81
2023-04-23T15:48:16.562Z,19.28
2023-04-23T15:50:46.632Z,18.38
2023-04-23T15:53:14.126Z,18.21
2023-04-23T15:55:46.614Z,17.93
2023-04-23T15:58:13.204Z,17.83
2023-04-23T16:00:40.979Z,17.94
2023-04-23T16:03:07.906Z,17.94
2023-04-23T16:05:36.718Z,18.38
2023-04-23T16:08:03.896Z,18.92
2023-04-23T16:10:33.852Z,19.65
2023-04-23T16:13:02.138Z,20.52
2023-04-23T16:15:28.930Z,19.69
2023-04-23T16:18:00.040Z,19.18
2023-04-23T16:20:28.674Z,18.79
2023-04-23T16:22:56.368Z,17.78
2023-04-23T16:25:24.339Z,17.77
2023-04-23T16:27:55.398Z,17.58
2023-04-23T16:30:22.054Z,17.81
2023-04-23T16:32:48.855Z,17.87
2023-04-23T16:35:15.954Z,18.02
2023-04-23T16:37:42.622Z,18.34
2023-04-23T16:40:10.292Z,18.59
2023-04-23T16:42:37.017Z,18.39
2023-04-23T16:45:05.134Z,18.04
2023-04-23T16:47:31.768Z,18.38
2023-04-23T16:49:58.668Z,18.55
2023-04-23T16:52:25.438Z,18.42
2023-04-23T16:54:52.115Z,18.46
2023-04-23T16:57:18.968Z,18.05
2023-04-23T16:59:48.845Z,17.48
2023-04-23T17:02:15.712Z,17.14
2023-04-23T17:04:42.712Z,16.75
2023-04-23T17:07:09.798Z,16.27
2023-04-23T17:09:36.487Z,15.95
2023-04-23T17:12:03.177Z,15.34
2023-04-23T17:14:29.874Z,14.96
2023-04-23T17:16:56.775Z,14.90
2023-04-23T17:19:23.482Z,14.65
2023-04-23T17:21:50.362Z,14.42
2023-04-23T17:24:20.223Z,14.27
2023-04-23T17:26:50.456Z,13.99
2023-04-23T17:29:17.359Z,13.97
2023-04-23T17:31:47.385Z,13.73
2023-04-23T17:34:14.193Z,13.53
2023-04-23T17:36:44.196Z,13.43
2023-04-23T17:39:11.108Z,13.30
2023-04-23T17:41:38.361Z,13.24
2023-04-23T17:44:05.237Z,13.17
2023-04-23T17:46:31.931Z,13.11
2023-04-23T17:49:01.050Z,13.05
2023-04-23T17:51:34.171Z,12.95
2023-04-23T17:54:02.222Z,12.95
2023-04-23T17:56:29.205Z,12.94
2023-04-23T17:58:59.003Z,12.87
2023-04-23T18:01:26.814Z,12.80
2023-04-23T18:03:59.204Z,12.73
2023-04-23T18:06:27.046Z,12.59
2023-04-23T18:08:56.302Z,12.56
2023-04-23T18:11:23.084Z,12.52
2023-04-23T18:13:53.935Z,12.47
2023-04-23T18:16:21.027Z,12.42
2023-04-23T18:18:50.887Z,12.33
2023-04-23T18:21:22.601Z,12.28
2023-04-23T18:23:56.610Z,12.21
2023-04-23T18:26:23.963Z,12.16
2023-04-23T18:28:50.685Z,12.12
2023-04-23T18:31:17.528Z,12.06
2023-04-23T18:34:02.125Z,12.02
2023-04-23T18:36:38.201Z,12.06
2023-04-23T18:39:07.304Z,12.06
2023-04-23T18:41:34.686Z,12.02
2023-04-23T18:44:02.443Z,12.06
2023-04-23T18:46:33.440Z,12.11
2023-04-23T18:49:54.962Z,12.18
2023-04-23T18:52:21.998Z,12.22
2023-04-23T18:54:59.956Z,12.24
2023-04-23T18:57:26.752Z,12.28
2023-04-23T18:59:56.488Z,12.30
2023-04-23T19:02:34.376Z,12.33
2023-04-23T19:05:03.999Z,12.34
2023-04-23T19:07:30.742Z,12.31
2023-04-23T19:09:57.450Z,12.31
2023-04-23T19:12:24.069Z,12.27
2023-04-23T19:14:50.764Z,12.24
2023-04-23T19:17:18.806Z,12.16
2023-04-23T19:19:46.311Z,12.11
2023-04-23T19:22:17.499Z,12.06
2023-04-23T19:24:46.566Z,12.05
2023-04-23T19:27:15.763Z,12.02
2023-04-23T19:29:42.492Z,12.04
2023-04-23T19:32:09.412Z,12.02
2023-04-23T19:34:36.071Z,11.98
2023-04-23T19:37:02.726Z,11.96
2023-04-23T19:39:32.535Z,11.94
2023-04-23T19:41:59.509Z,11.95
2023-04-23T19:47:07.634Z,11.91
2023-04-23T19:49:34.477Z,11.86
2023-04-23T19:52:04.408Z,11.84
2023-04-23T19:59:54.745Z,11.78
2023-04-23T20:02:21.626Z,11.74
2023-04-23T20:04:48.458Z,11.71
2023-04-23T20:07:15.443Z,11.70
2023-04-23T20:09:42.219Z,11.62
2023-04-23T20:12:09.212Z,11.58
2023-04-23T20:20:02.785Z,11.35
2023-04-23T20:22:31.291Z,11.27
2023-04-23T20:25:03.775Z,11.20
2023-04-23T20:27:30.993Z,11.14
2023-04-23T20:29:57.729Z,11.06
2023-04-23T20:32:24.495Z,11.00
2023-04-23T20:34:56.682Z,10.93
2023-04-23T20:37:26.664Z,10.83
2023-04-23T20:39:58.422Z,10.73
2023-04-23T20:42:25.738Z,10.68
2023-04-23T20:45:01.852Z,10.62
2023-04-23T20:47:28.629Z,10.56
2023-04-23T20:49:55.621Z,10.52
2023-04-23T20:52:22.756Z,10.43
2023-04-23T21:05:41.437Z,10.48
2023-04-23T21:08:09.133Z,10.54
2023-04-23T21:10:39.150Z,10.50
2023-04-23T21:13:13.315Z,10.56
2023-04-23T21:29:12.842Z,10.73
2023-04-23T21:31:48.172Z,10.66
2023-04-23T21:34:19.732Z,10.56
2023-04-23T21:36:46.693Z,10.44
2023-04-23T21:39:13.633Z,10.38
2023-04-23T21:41:45.174Z,10.29
2023-04-23T21:49:33.337Z,10.56
2023-04-23T21:52:03.660Z,10.56
2023-04-23T21:54:30.535Z,10.57
2023-04-23T21:56:59.097Z,10.74
2023-04-23T21:59:26.041Z,10.75
2023-04-23T22:01:59.850Z,10.91
2023-04-23T22:04:34.529Z,10.92
2023-04-23T22:07:05.456Z,11.03
2023-04-23T22:09:32.146Z,11.02
2023-04-23T22:12:02.460Z,11.01
2023-04-23T22:14:29.689Z,11.03
2023-04-23T22:16:58.681Z,11.04
2023-04-23T22:19:26.121Z,11.09
2023-04-23T22:21:56.309Z,11.17
2023-04-23T22:24:24.160Z,11.19
2023-04-23T22:27:00.139Z,11.30
2023-04-23T22:29:26.864Z,11.34
2023-04-23T22:31:58.933Z,11.36
2023-04-23T22:34:25.648Z,11.34
2023-04-23T22:39:33.264Z,11.34
2023-04-23T22:41:59.910Z,11.31
2023-04-23T22:44:26.649Z,11.31
2023-04-23T22:46:59.429Z,11.30
2023-04-23T22:49:26.153Z,11.34
2023-04-23T22:51:56.243Z,11.37
2023-04-23T22:54:23.035Z,11.37
2023-04-23T22:56:50.001Z,11.49
2023-04-23T22:59:16.701Z,11.55
2023-04-23T23:01:43.371Z,11.60
2023-04-23T23:04:13.024Z,11.63
2023-04-23T23:06:43.843Z,11.72
2023-04-23T23:09:10.776Z,11.79
2023-04-23T23:11:37.714Z,11.82
2023-04-23T23:14:04.965Z,11.84
2023-04-23T23:16:31.911Z,11.82
2023-04-23T23:18:59.514Z,11.84
2023-04-23T23:21:26.813Z,11.91
2023-04-23T23:24:01.814Z,11.91
2023-04-23T23:26:28.884Z,11.93
2023-04-23T23:28:57.947Z,11.96
2023-04-23T23:31:26.022Z,11.96
2023-04-23T23:34:02.141Z,11.93
2023-04-23T23:36:29.706Z,11.96
2023-04-23T23:39:01.113Z,12.01
2023-04-23T23:41:29.028Z,12.00
2023-04-23T23:43:57.796Z,12.03
2023-04-23T23:46:27.143Z,12.04
2023-04-23T23:48:59.620Z,12.05
2023-04-23T23:51:28.222Z,12.07
2023-04-23T23:53:55.378Z,12.02
2023-04-23T23:56:22.193Z,12.04
2023-04-23T23:58:48.831Z,12.04
